createdAt,value
2023-04-26T00:01:05.912Z,7.30
2023-04-26T00:03:33.387Z,7.10
2023-04-26T00:06:06.623Z,6.90
2023-04-26T00:08:33.943Z,6.80
2023-04-26T00:11:01.403Z,6.60
2023-04-26T00:13:28.622Z,6.40
2023-04-26T00:15:56.039Z,6.30
2023-04-26T00:18:23.287Z,6.00
2023-04-26T00:20:50.627Z,5.90
2023-04-26T00:23:18.433Z,5.90
2023-04-26T00:25:45.820Z,5.80
2023-04-26T00:28:13.075Z,5.60
2023-04-26T00:30:47.380Z,5.60
2023-04-26T00:33:15.083Z,5.50
2023-04-26T00:35:42.518Z,5.50
2023-04-26T00:38:09.760Z,5.30
2023-04-26T00:40:37.067Z,5.20
2023-04-26T00:43:04.354Z,5.30
2023-04-26T00:45:32.175Z,5.30
2023-04-26T00:48:02.646Z,5.20
2023-04-26T00:50:31.489Z,5.20
2023-04-26T00:53:00.116Z,5.10
2023-04-26T00:55:27.643Z,5.00
2023-04-26T00:57:55.527Z,5.00
2023-04-26T01:00:22.914Z,5.00
2023-04-26T01:02:50.309Z,4.90
2023-04-26T01:05:18.009Z,4.70
2023-04-26T01:07:46.242Z,4.70
2023-04-26T01:10:13.469Z,4.70
2023-04-26T01:12:40.832Z,4.80
2023-04-26T01:15:08.602Z,4.90
2023-04-26T01:17:37.917Z,4.90
2023-04-26T01:20:06.106Z,4.70
2023-04-26T01:22:34.175Z,4.70
2023-04-26T01:25:04.562Z,4.80
2023-04-26T01:27:31.901Z,4.70
2023-04-26T01:29:59.132Z,4.70
2023-04-26T01:32:26.435Z,4.80
2023-04-26T01:34:53.672Z,4.80
2023-04-26T01:37:21.041Z,4.70
2023-04-26T01:39:48.283Z,4.80
2023-04-26T01:42:15.486Z,4.90
2023-04-26T01:44:42.725Z,5.00
2023-04-26T01:47:09.927Z,4.90
2023-04-26T01:49:37.286Z,4.80
2023-04-26T01:52:04.999Z,4.70
2023-04-26T01:54:32.274Z,4.70
2023-04-26T01:56:59.574Z,4.60
2023-04-26T01:59:26.988Z,4.60
2023-04-26T02:01:54.227Z,4.50
2023-04-26T02:04:21.542Z,4.60
2023-04-26T02:06:48.833Z,4.60
2023-04-26T02:09:16.090Z,4.60
2023-04-26T02:11:43.282Z,4.50
2023-04-26T02:14:11.003Z,4.50
2023-04-26T02:16:40.412Z,4.40
2023-04-26T02:19:10.967Z,4.50
2023-04-26T02:21:52.739Z,4.60
2023-04-26T02:24:20.155Z,4.60
2023-04-26T02:26:47.404Z,4.60
2023-04-26T02:29:14.884Z,4.60
2023-04-26T02:31:42.153Z,4.60
2023-04-26T02:34:09.578Z,4.60
2023-04-26T02:36:37.093Z,4.60
2023-04-26T02:39:04.318Z,4.60
2023-04-26T02:41:34.604Z,4.50
2023-04-26T02:44:01.860Z,4.50
2023-04-26T02:46:29.131Z,4.40
2023-04-26T02:48:56.445Z,4.20
2023-04-26T02:51:23.643Z,4.20
2023-04-26T02:53:50.917Z,4.20
2023-04-26T02:56:18.179Z,4.10
2023-04-26T02:58:46.595Z,4.10
2023-04-26T03:01:14.676Z,4.00
2023-04-26T03:03:42.706Z,4.00
2023-04-26T03:06:10.232Z,4.00
2023-04-26T03:08:37.494Z,4.00
2023-04-26T03:11:04.820Z,4.00
2023-04-26T03:13:32.253Z,4.00
2023-04-26T03:15:59.581Z,3.80
2023-04-26T03:18:26.814Z,4.00
2023-04-26T03:20:54.107Z,4.00
2023-04-26T03:23:24.438Z,3.90
2023-04-26T03:25:52.007Z,3.90
2023-04-26T03:28:19.379Z,3.80
2023-04-26T03:30:46.754Z,3.80
2023-04-26T03:33:14.117Z,3.60
2023-04-26T03:35:41.557Z,3.50
2023-04-26T03:38:08.859Z,3.40
2023-04-26T03:40:36.058Z,3.50
2023-04-26T03:43:03.336Z,3.60
2023-04-26T03:45:30.562Z,3.40
2023-04-26T03:47:58.106Z,3.50
2023-04-26T03:50:25.583Z,3.40
2023-04-26T03:52:52.893Z,3.40
2023-04-26T03:55:20.443Z,3.50
2023-04-26T03:57:47.958Z,3.50
2023-04-26T04:00:15.505Z,3.40
2023-04-26T04:02:43.114Z,3.40
2023-04-26T04:05:10.730Z,3.40
2023-04-26T04:07:38.058Z,3.30
2023-04-26T04:10:07.432Z,3.30
2023-04-26T04:12:34.656Z,3.40
2023-04-26T04:15:02.896Z,3.50
2023-04-26T04:17:30.134Z,3.70
2023-04-26T04:19:57.530Z,3.70
2023-04-26T04:22:24.864Z,3.60
2023-04-26T04:24:52.239Z,3.50
2023-04-26T04:27:21.233Z,3.30
2023-04-26T04:29:48.671Z,3.10
2023-04-26T04:32:17.294Z,3.10
2023-04-26T04:34:45.012Z,3.10
2023-04-26T04:37:12.461Z,3.20
2023-04-26T04:39:39.700Z,3.20
2023-04-26T04:42:07.028Z,3.20
2023-04-26T04:44:34.347Z,3.30
2023-04-26T04:47:01.593Z,3.20
2023-04-26T04:49:29.104Z,3.40
2023-04-26T04:51:56.376Z,3.30
2023-04-26T04:54:23.702Z,3.40
2023-04-26T04:56:51.308Z,3.50
2023-04-26T04:59:18.564Z,3.70
2023-04-26T05:01:45.952Z,3.70
2023-04-26T05:04:13.335Z,3.70
2023-04-26T05:06:41.176Z,3.80
2023-04-26T05:09:09.618Z,3.90
2023-04-26T05:11:36.903Z,4.00
2023-04-26T05:14:04.128Z,4.00
2023-04-26T05:16:31.557Z,4.00
2023-04-26T05:18:58.823Z,4.10
2023-04-26T05:21:26.057Z,4.20
2023-04-26T05:23:53.628Z,4.20
2023-04-26T05:26:21.223Z,4.30
2023-04-26T05:28:48.488Z,4.50
2023-04-26T05:31:15.840Z,4.50
2023-04-26T05:33:43.193Z,4.50
2023-04-26T05:36:10.512Z,4.60
2023-04-26T05:38:38.201Z,4.50
2023-04-26T05:41:05.622Z,4.50
2023-04-26T05:43:32.954Z,4.40
2023-04-26T05:46:02.106Z,4.70
2023-04-26T05:48:29.971Z,5.00
2023-04-26T05:50:57.314Z,5.20
2023-04-26T05:53:24.600Z,5.30
2023-04-26T05:55:51.929Z,5.50
2023-04-26T05:58:19.218Z,5.70
2023-04-26T06:00:46.582Z,5.80
2023-04-26T06:03:14.194Z,5.90
2023-04-26T06:05:41.872Z,6.00
2023-04-26T06:08:09.791Z,6.20
2023-04-26T06:10:37.813Z,6.30
2023-04-26T06:13:05.322Z,6.40
2023-04-26T06:15:33.052Z,6.90
2023-04-26T06:18:00.425Z,7.40
2023-04-26T06:20:27.918Z,7.60
2023-04-26T06:22:55.268Z,7.60
2023-04-26T06:25:22.599Z,7.60
2023-04-26T06:27:50.001Z,7.90
2023-04-26T06:30:17.387Z,7.80
2023-04-26T06:32:44.809Z,7.90
2023-04-26T06:35:12.095Z,8.10
2023-04-26T06:37:39.937Z,8.20
2023-04-26T06:40:08.151Z,8.50
2023-04-26T06:42:35.678Z,8.70
2023-04-26T06:45:03.149Z,8.90
2023-04-26T06:47:30.711Z,8.90
2023-04-26T06:49:58.071Z,8.90
2023-04-26T06:52:26.294Z,8.90
2023-04-26T06:54:56.993Z,9.00
2023-04-26T06:57:25.091Z,8.90
2023-04-26T06:59:52.318Z,8.90
2023-04-26T07:02:19.859Z,9.00
2023-04-26T07:04:47.566Z,9.20
2023-04-26T07:07:16.575Z,9.50
2023-04-26T07:09:44.569Z,9.40
2023-04-26T07:12:12.593Z,9.70
2023-04-26T07:14:41.474Z,9.80
2023-04-26T07:17:09.135Z,10.00
2023-04-26T07:19:36.729Z,10.00
2023-04-26T07:22:04.851Z,10.00
2023-04-26T07:24:32.229Z,9.80
2023-04-26T07:26:59.534Z,9.80
2023-04-26T07:29:26.896Z,9.70
2023-04-26T07:31:54.172Z,9.60
2023-04-26T07:34:21.396Z,9.70
2023-04-26T07:36:48.660Z,9.70
2023-04-26T07:39:15.994Z,9.70
2023-04-26T07:41:44.164Z,9.80
2023-04-26T07:44:11.594Z,9.90
2023-04-26T07:46:38.838Z,10.20
2023-04-26T07:49:06.066Z,10.50
2023-04-26T07:51:33.503Z,10.70
2023-04-26T07:54:01.833Z,10.30
2023-04-26T07:56:29.083Z,10.40
2023-04-26T07:58:56.332Z,10.30
2023-04-26T08:01:23.699Z,10.10
2023-04-26T08:03:51.202Z,10.20
2023-04-26T08:06:18.827Z,10.10
2023-04-26T08:08:50.485Z,9.90
2023-04-26T08:11:18.407Z,10.10
2023-04-26T08:13:46.354Z,10.10
2023-04-26T08:16:14.037Z,10.10
2023-04-26T08:18:42.454Z,10.30
2023-04-26T08:21:10.660Z,10.20
2023-04-26T08:23:38.047Z,10.20
2023-04-26T08:26:06.588Z,10.30
2023-04-26T08:28:34.042Z,10.50
2023-04-26T08:31:01.519Z,10.70
2023-04-26T08:33:28.835Z,10.80
2023-04-26T08:35:56.207Z,10.70
2023-04-26T08:38:23.522Z,10.70
2023-04-26T08:40:51.916Z,10.60
2023-04-26T08:43:22.148Z,10.70
2023-04-26T08:45:49.513Z,10.50
2023-04-26T08:48:18.358Z,10.40
2023-04-26T08:50:49.373Z,10.40
2023-04-26T08:53:20.386Z,10.40
2023-04-26T08:55:51.091Z,10.70
2023-04-26T08:58:19.198Z,10.60
2023-04-26T09:00:47.091Z,10.40
2023-04-26T09:03:14.913Z,10.40
2023-04-26T09:05:45.961Z,10.90
2023-04-26T09:08:18.195Z,11.10
2023-04-26T09:10:45.842Z,11.70
2023-04-26T09:13:14.555Z,11.90
2023-04-26T09:15:42.156Z,12.00
2023-04-26T09:18:23.347Z,12.20
2023-04-26T09:21:06.142Z,12.30
2023-04-26T09:23:34.150Z,12.10
2023-04-26T09:26:21.112Z,12.30
2023-04-26T09:28:48.731Z,12.20
2023-04-26T09:31:49.305Z,12.50
2023-04-26T09:34:17.290Z,12.60
2023-04-26T09:36:48.513Z,13.40
2023-04-26T09:39:29.624Z,13.50
2023-04-26T09:41:59.546Z,13.10
2023-04-26T09:44:27.241Z,13.00
2023-04-26T09:47:05.825Z,13.90
2023-04-26T09:49:51.878Z,13.60
2023-04-26T09:52:19.936Z,13.80
2023-04-26T09:54:49.515Z,13.50
2023-04-26T09:57:19.584Z,13.60
2023-04-26T09:59:49.146Z,13.10
2023-04-26T10:02:22.526Z,12.40
2023-04-26T10:04:54.961Z,12.50
2023-04-26T10:07:24.302Z,12.30
2023-04-26T10:09:51.797Z,12.10
2023-04-26T10:12:20.374Z,12.00
2023-04-26T10:14:48.648Z,12.00
2023-04-26T10:17:16.389Z,12.50
2023-04-26T10:19:44.583Z,12.90
2023-04-26T10:22:21.565Z,13.00
2023-04-26T10:24:50.731Z,13.20
2023-04-26T10:27:44.236Z,12.50
2023-04-26T10:30:14.011Z,12.70
2023-04-26T10:32:56.462Z,12.80
2023-04-26T10:35:26.241Z,13.20
2023-04-26T10:38:02.607Z,13.40
2023-04-26T10:40:34.167Z,13.20
2023-04-26T10:43:16.525Z,13.40
2023-04-26T10:45:48.073Z,13.50
2023-04-26T10:48:20.765Z,13.60
2023-04-26T10:51:00.213Z,13.50
2023-04-26T10:53:47.734Z,13.20
2023-04-26T10:56:24.220Z,12.90
2023-04-26T11:01:41.980Z,12.90
2023-04-26T11:04:13.183Z,13.30
2023-04-26T11:06:51.146Z,13.90
2023-04-26T11:09:39.569Z,14.40
2023-04-26T11:12:07.964Z,14.20
2023-04-26T11:14:35.882Z,14.70
2023-04-26T11:17:06.890Z,14.70
2023-04-26T11:19:34.812Z,14.70
2023-04-26T11:22:03.504Z,15.30
2023-04-26T11:24:32.170Z,15.40
2023-04-26T11:26:59.866Z,15.40
2023-04-26T11:29:27.169Z,15.50
2023-04-26T11:31:58.633Z,15.40
2023-04-26T11:34:36.553Z,15.00
2023-04-26T11:37:07.486Z,15.60
2023-04-26T11:39:37.490Z,15.40
2023-04-26T11:42:12.072Z,15.10
2023-04-26T11:44:41.239Z,14.80
2023-04-26T11:47:09.121Z,15.30
2023-04-26T11:49:38.746Z,15.60
2023-04-26T11:52:06.628Z,15.40
2023-04-26T11:54:38.021Z,15.20
2023-04-26T11:57:17.346Z,15.20
2023-04-26T11:59:46.092Z,15.60
2023-04-26T12:02:13.741Z,15.60
2023-04-26T12:04:41.781Z,15.30
2023-04-26T12:07:09.777Z,15.40
2023-04-26T12:09:42.701Z,16.30
2023-04-26T12:12:11.296Z,15.90
2023-04-26T12:14:40.514Z,15.60
2023-04-26T12:17:08.172Z,15.90
2023-04-26T12:19:40.033Z,15.80
2023-04-26T12:22:08.620Z,15.50
2023-04-26T12:24:38.900Z,14.80
2023-04-26T12:27:07.923Z,15.40
2023-04-26T12:29:35.584Z,15.70
2023-04-26T12:32:03.248Z,15.80
2023-04-26T12:34:31.072Z,15.70
2023-04-26T12:36:58.591Z,16.30
2023-04-26T12:39:26.018Z,16.30
2023-04-26T12:41:53.406Z,16.00
2023-04-26T12:44:22.484Z,16.40
2023-04-26T12:46:50.396Z,16.20
2023-04-26T12:49:17.713Z,16.10
2023-04-26T12:51:44.955Z,15.70
2023-04-26T12:54:12.237Z,16.20
2023-04-26T12:56:43.875Z,16.60
2023-04-26T12:59:11.492Z,16.00
2023-04-26T13:01:38.897Z,15.70
2023-04-26T13:04:06.579Z,15.90
2023-04-26T13:06:35.004Z,15.60
2023-04-26T13:09:02.723Z,16.00
2023-04-26T13:11:30.059Z,16.00
2023-04-26T13:13:57.319Z,16.40
2023-04-26T13:16:24.598Z,16.80
2023-04-26T13:18:51.997Z,16.70
2023-04-26T13:21:19.353Z,16.10
2023-04-26T13:23:47.464Z,16.10
2023-04-26T13:26:20.137Z,15.50
2023-04-26T13:28:48.192Z,15.70
2023-04-26T13:31:17.590Z,15.80
2023-04-26T13:33:47.403Z,16.70
2023-04-26T13:36:16.021Z,16.20
2023-04-26T13:38:44.452Z,16.90
2023-04-26T13:41:12.049Z,16.80
2023-04-26T13:43:39.307Z,16.50
2023-04-26T13:46:06.627Z,16.20
2023-04-26T13:48:33.946Z,16.30
2023-04-26T13:51:01.292Z,16.20
2023-04-26T13:53:28.792Z,16.50
2023-04-26T13:55:56.720Z,16.30
2023-04-26T13:58:23.990Z,16.00
2023-04-26T14:00:51.267Z,16.00
2023-04-26T14:03:18.701Z,16.00
2023-04-26T14:05:45.982Z,15.70
2023-04-26T14:08:13.539Z,15.60
2023-04-26T14:10:41.172Z,15.40
2023-04-26T14:13:08.476Z,15.20
2023-04-26T14:15:36.249Z,15.10
2023-04-26T14:18:03.602Z,15.10
2023-04-26T14:20:30.858Z,15.60
2023-04-26T14:22:58.129Z,16.10
2023-04-26T14:25:27.180Z,16.20
2023-04-26T14:27:54.620Z,16.20
2023-04-26T14:30:22.179Z,15.80
2023-04-26T14:32:49.422Z,15.80
2023-04-26T14:35:16.615Z,15.60
2023-04-26T14:37:43.878Z,15.20
2023-04-26T14:40:11.876Z,15.20
2023-04-26T14:42:44.416Z,14.60
2023-04-26T14:45:12.794Z,14.40
2023-04-26T14:47:40.745Z,14.70
2023-04-26T14:50:09.835Z,14.70
2023-04-26T14:52:37.671Z,14.40
2023-04-26T14:55:05.622Z,14.80
2023-04-26T14:57:34.622Z,15.00
2023-04-26T15:00:07.280Z,15.50
2023-04-26T15:02:34.698Z,15.40
2023-04-26T15:05:05.196Z,15.50
2023-04-26T15:07:33.208Z,15.20
2023-04-26T15:10:01.646Z,15.40
2023-04-26T15:12:29.147Z,15.30
2023-04-26T15:14:56.832Z,14.80
2023-04-26T15:17:24.378Z,15.30
2023-04-26T15:19:51.817Z,15.30
2023-04-26T15:22:19.162Z,15.20
2023-04-26T15:24:46.491Z,15.10
2023-04-26T15:27:13.793Z,14.70
2023-04-26T15:29:40.993Z,14.50
2023-04-26T15:32:08.942Z,14.80
2023-04-26T15:34:40.734Z,14.40
2023-04-26T15:37:08.089Z,14.30
2023-04-26T15:39:35.278Z,14.30
2023-04-26T15:42:02.653Z,14.00
2023-04-26T15:44:30.538Z,13.80
2023-04-26T15:46:58.031Z,13.80
2023-04-26T15:49:25.700Z,13.80
2023-04-26T15:51:52.913Z,14.20
2023-04-26T15:54:20.250Z,14.00
2023-04-26T15:56:47.968Z,13.80
2023-04-26T15:59:15.339Z,13.70
2023-04-26T16:01:42.679Z,13.70
2023-04-26T16:04:10.275Z,13.90
2023-04-26T16:06:38.085Z,13.90
2023-04-26T16:09:23.352Z,14.10
2023-04-26T16:11:51.754Z,14.90
2023-04-26T16:14:19.105Z,14.80
2023-04-26T16:16:46.415Z,14.60
2023-04-26T16:19:13.821Z,15.10
2023-04-26T16:21:41.248Z,14.40
2023-04-26T16:24:12.464Z,14.40
2023-04-26T16:26:39.886Z,14.40
2023-04-26T16:29:07.131Z,13.90
2023-04-26T16:31:34.705Z,13.90
2023-04-26T16:34:02.001Z,13.80
2023-04-26T16:36:29.255Z,14.00
2023-04-26T16:38:56.756Z,13.90
2023-04-26T16:41:24.591Z,13.80
2023-04-26T16:43:53.097Z,13.70
2023-04-26T16:46:20.864Z,13.80
2023-04-26T16:48:48.769Z,13.60
2023-04-26T16:51:16.113Z,13.40
2023-04-26T16:53:43.374Z,13.40
2023-04-26T16:56:11.097Z,13.70
2023-04-26T16:58:38.365Z,13.60
2023-04-26T17:01:06.109Z,13.20
2023-04-26T17:03:33.449Z,13.20
2023-04-26T17:06:01.550Z,13.00
2023-04-26T17:08:28.834Z,13.30
2023-04-26T17:10:56.558Z,13.70
2023-04-26T17:13:24.273Z,13.50
2023-04-26T17:15:51.512Z,13.30
2023-04-26T17:18:18.794Z,13.10
2023-04-26T17:20:45.978Z,13.10
2023-04-26T17:23:13.296Z,12.80
2023-04-26T17:25:40.488Z,12.50
2023-04-26T17:28:07.715Z,12.40
2023-04-26T17:30:35.015Z,12.30
2023-04-26T17:33:02.918Z,11.90
2023-04-26T17:35:30.264Z,11.80
2023-04-26T17:37:57.463Z,11.70
2023-04-26T17:40:24.679Z,11.60
2023-04-26T17:42:51.917Z,11.60
2023-04-26T17:45:19.207Z,11.30
2023-04-26T17:47:46.566Z,11.30
2023-04-26T17:50:13.874Z,11.10
2023-04-26T17:52:41.927Z,11.10
2023-04-26T17:55:10.149Z,10.90
2023-04-26T17:57:37.544Z,10.70
2023-04-26T18:00:06.887Z,10.80
2023-04-26T18:02:35.382Z,10.60
2023-04-26T18:05:03.933Z,10.40
2023-04-26T18:07:31.354Z,10.30
2023-04-26T18:09:58.569Z,10.40
2023-04-26T18:12:26.055Z,10.30
2023-04-26T18:14:53.294Z,10.20
2023-04-26T18:17:20.865Z,10.10
2023-04-26T18:19:48.178Z,10.10
2023-04-26T18:22:15.492Z,10.10
2023-04-26T18:24:42.783Z,10.10
2023-04-26T18:27:13.087Z,10.00
2023-04-26T18:29:41.146Z,9.90
2023-04-26T18:32:08.322Z,9.80
2023-04-26T18:34:35.619Z,9.80
2023-04-26T18:37:02.934Z,9.60
2023-04-26T18:39:30.507Z,9.50
2023-04-26T18:41:57.862Z,9.40
2023-04-26T18:44:25.122Z,9.40
2023-04-26T18:46:55.671Z,9.30
2023-04-26T18:49:23.720Z,9.20
2023-04-26T18:51:50.977Z,9.10
2023-04-26T18:54:18.224Z,9.00
2023-04-26T18:56:45.726Z,8.80
2023-04-26T18:59:13.072Z,8.60
2023-04-26T19:01:41.151Z,8.60
2023-04-26T19:04:09.342Z,8.40
2023-04-26T19:06:36.733Z,8.40
2023-04-26T19:09:06.126Z,8.30
2023-04-26T19:11:33.452Z,8.20
2023-04-26T19:14:00.912Z,8.00
2023-04-26T19:16:28.859Z,8.00
2023-04-26T19:18:58.185Z,8.00
2023-04-26T19:21:25.880Z,8.00
2023-04-26T19:23:53.299Z,8.00
2023-04-26T19:26:24.400Z,8.00
2023-04-26T19:28:51.918Z,7.90
2023-04-26T19:31:19.137Z,7.90
2023-04-26T19:33:46.557Z,7.70
2023-04-26T19:36:13.853Z,7.70
2023-04-26T19:38:41.317Z,7.60
2023-04-26T19:41:08.714Z,7.60
2023-04-26T19:43:36.152Z,7.20
2023-04-26T19:46:14.467Z,7.20
2023-04-26T19:48:41.986Z,7.20
2023-04-26T19:51:15.419Z,7.20
2023-04-26T19:53:43.161Z,7.20
2023-04-26T19:56:14.277Z,7.20
2023-04-26T19:58:44.938Z,7.20
2023-04-26T20:01:12.426Z,7.10
2023-04-26T20:03:41.718Z,7.00
2023-04-26T20:06:09.846Z,6.70
2023-04-26T20:08:37.099Z,6.70
2023-04-26T20:11:05.084Z,6.50
2023-04-26T20:13:32.833Z,6.40
2023-04-26T20:16:00.825Z,6.40
2023-04-26T20:18:28.144Z,6.60
2023-04-26T20:20:55.476Z,6.60
2023-04-26T20:23:22.863Z,6.80
2023-04-26T20:25:51.313Z,7.00
2023-04-26T20:28:18.642Z,7.00
2023-04-26T20:30:45.872Z,7.00
2023-04-26T20:33:13.151Z,6.90
2023-04-26T20:35:41.310Z,6.80
2023-04-26T20:38:08.847Z,6.70
2023-04-26T20:40:36.291Z,6.80
2023-04-26T20:43:04.092Z,6.80
2023-04-26T20:45:31.318Z,6.80
2023-04-26T20:47:58.668Z,6.70
2023-04-26T20:50:25.991Z,6.60
2023-04-26T20:52:53.355Z,6.60
2023-04-26T20:55:20.736Z,6.70
2023-04-26T20:57:48.010Z,6.70
2023-04-26T21:00:15.503Z,6.70
2023-04-26T21:02:42.926Z,6.60
2023-04-26T21:05:10.808Z,6.70
2023-04-26T21:07:38.118Z,6.70
2023-04-26T21:10:05.859Z,6.80
2023-04-26T21:12:33.078Z,6.70
2023-04-26T21:15:00.449Z,6.60
2023-04-26T21:17:27.752Z,6.60
2023-04-26T21:19:55.154Z,6.50
2023-04-26T21:22:22.432Z,6.40
2023-04-26T21:24:52.176Z,6.40
2023-04-26T21:27:19.471Z,6.50
2023-04-26T21:29:46.720Z,6.60
2023-04-26T21:32:13.936Z,6.60
2023-04-26T21:34:41.385Z,6.70
2023-04-26T21:37:08.616Z,6.70
2023-04-26T21:39:36.037Z,6.80
2023-04-26T21:42:03.705Z,6.70
2023-04-26T21:44:31.118Z,6.60
2023-04-26T21:46:58.375Z,6.60
2023-04-26T21:49:26.124Z,6.70
2023-04-26T21:51:53.295Z,6.40
2023-04-26T21:54:20.507Z,6.50
2023-04-26T21:56:47.672Z,6.40
2023-04-26T21:59:15.403Z,6.40
2023-04-26T22:01:42.748Z,6.40
2023-04-26T22:04:10.199Z,6.30
2023-04-26T22:06:37.678Z,6.40
2023-04-26T22:09:09.228Z,6.40
2023-04-26T22:11:36.774Z,6.30
2023-04-26T22:14:04.024Z,6.30
2023-04-26T22:16:32.057Z,6.20
2023-04-26T22:18:59.385Z,6.30
2023-04-26T22:21:27.015Z,6.20
2023-04-26T22:23:54.319Z,6.00
2023-04-26T22:26:21.716Z,5.80
2023-04-26T22:28:48.987Z,5.70
2023-04-26T22:31:16.541Z,5.80
2023-04-26T22:33:43.863Z,5.80
2023-04-26T22:36:11.264Z,5.90
2023-04-26T22:38:38.547Z,5.70
2023-04-26T22:41:07.413Z,5.80
2023-04-26T22:43:35.207Z,5.60
2023-04-26T22:46:02.688Z,5.60
2023-04-26T22:48:29.962Z,5.60
2023-04-26T22:50:57.628Z,5.60
2023-04-26T22:53:24.930Z,5.70
2023-04-26T22:55:52.284Z,5.50
2023-04-26T22:58:19.564Z,5.50
2023-04-26T23:00:47.054Z,5.50
2023-04-26T23:03:14.377Z,5.40
2023-04-26T23:05:41.679Z,5.30
2023-04-26T23:08:09.048Z,5.20
2023-04-26T23:10:36.268Z,5.20
2023-04-26T23:13:04.971Z,4.90
2023-04-26T23:15:33.010Z,5.10
2023-04-26T23:18:00.914Z,5.20
2023-04-26T23:20:28.198Z,5.00
2023-04-26T23:22:55.557Z,5.00
2023-04-26T23:25:22.859Z,5.00
2023-04-26T23:27:50.140Z,5.20
2023-04-26T23:30:17.990Z,5.30
2023-04-26T23:32:45.252Z,4.90
2023-04-26T23:35:12.556Z,4.80
2023-04-26T23:37:39.821Z,4.50
2023-04-26T23:40:09.356Z,4.60
2023-04-26T23:42:37.139Z,4.70
2023-04-26T23:45:04.732Z,4.80
2023-04-26T23:47:32.309Z,4.80
2023-04-26T23:49:59.690Z,4.70
2023-04-26T23:52:27.056Z,4.80
2023-04-26T23:54:54.260Z,4.80
2023-04-26T23:57:21.611Z,4.80
2023-04-26T23:59:48.837Z,4.80
